createdAt,value
2018-10-17T00:00:49.859Z,98669.75
2018-10-17T00:03:18.136Z,98674.36
2018-10-17T00:05:46.346Z,98673.28
2018-10-17T00:08:14.666Z,98669.99
2018-10-17T00:10:43.203Z,98669.67
2018-10-17T00:13:11.544Z,98682.37
2018-10-17T00:15:39.883Z,98682.25
2018-10-17T00:18:08.203Z,98685.43
2018-10-17T00:20:37.155Z,98683.08
2018-10-17T00:23:06.091Z,98679.41
2018-10-17T00:25:34.440Z,98678.00
2018-10-17T00:28:03.242Z,98678.11
2018-10-17T00:30:32.005Z,98678.12
2018-10-17T00:33:00.463Z,98674.23
2018-10-17T00:35:28.680Z,98676.33
2018-10-17T00:37:57.160Z,98674.21
2018-10-17T00:40:25.492Z,98675.73
2018-10-17T00:42:55.217Z,98673.31
2018-10-17T00:45:24.664Z,98668.38
2018-10-17T00:47:52.931Z,98670.48
2018-10-17T00:50:21.181Z,98670.81
2018-10-17T00:52:49.334Z,98674.45
2018-10-17T00:55:17.816Z,98677.37
2018-10-17T00:57:47.111Z,98672.20
2018-10-17T01:00:15.647Z,98671.12
2018-10-17T01:02:44.250Z,98674.48
2018-10-17T01:05:13.031Z,98670.00
2018-10-17T01:07:42.221Z,98671.91
2018-10-17T01:10:10.496Z,98672.59
2018-10-17T01:12:39.795Z,98671.61
2018-10-17T01:15:08.016Z,98671.81
2018-10-17T01:17:37.306Z,98669.32
2018-10-17T01:20:07.088Z,98670.05
2018-10-17T01:22:36.036Z,98665.11
2018-10-17T01:25:04.940Z,98663.83
2018-10-17T01:27:35.092Z,98662.31
2018-10-17T01:30:03.455Z,98659.39
2018-10-17T01:32:31.926Z,98656.94
2018-10-17T01:35:00.749Z,98658.70
2018-10-17T01:37:29.056Z,98653.22
2018-10-17T01:39:57.695Z,98655.02
2018-10-17T01:42:26.133Z,98650.78
2018-10-17T01:44:55.424Z,98658.38
2018-10-17T01:47:24.330Z,98650.27
2018-10-17T01:49:52.553Z,98647.45
2018-10-17T01:52:21.291Z,98645.06
2018-10-17T01:54:49.529Z,98642.77
2018-10-17T01:57:17.724Z,98647.38
2018-10-17T01:59:46.231Z,98641.67
2018-10-17T02:02:14.530Z,98640.02
2018-10-17T02:04:42.711Z,98641.48
2018-10-17T02:07:10.997Z,98643.81
2018-10-17T02:09:41.008Z,98637.50
2018-10-17T02:12:09.200Z,98636.27
2018-10-17T02:14:38.381Z,98634.61
2018-10-17T02:17:07.285Z,98638.41
2018-10-17T02:19:35.797Z,98638.47
2018-10-17T02:22:04.455Z,98640.06
2018-10-17T02:24:32.753Z,98642.77
2018-10-17T02:27:01.004Z,98641.10
2018-10-17T02:29:29.361Z,98641.69
2018-10-17T02:31:57.579Z,98644.81
2018-10-17T02:34:25.832Z,98640.29
2018-10-17T02:36:54.020Z,98646.27
2018-10-17T02:39:22.622Z,98637.55
2018-10-17T02:41:51.155Z,98632.45
2018-10-17T02:44:19.618Z,98633.07
2018-10-17T02:46:47.845Z,98629.63
2018-10-17T02:49:16.581Z,98632.37
2018-10-17T02:51:45.595Z,98632.87
2018-10-17T02:54:13.826Z,98633.28
2018-10-17T02:56:42.188Z,98627.34
2018-10-17T02:59:10.548Z,98627.39
2018-10-17T03:01:39.857Z,98625.81
2018-10-17T03:04:08.079Z,98630.00
2018-10-17T03:06:36.359Z,98633.74
2018-10-17T03:09:07.100Z,98625.64
2018-10-17T03:11:36.215Z,98625.93
2018-10-17T03:14:04.416Z,98631.63
2018-10-17T03:16:33.253Z,98632.91
2018-10-17T03:19:01.527Z,98631.83
2018-10-17T03:21:30.417Z,98633.99
2018-10-17T03:24:05.695Z,98633.91
2018-10-17T03:26:34.325Z,98633.73
2018-10-17T03:29:02.681Z,98638.30
2018-10-17T03:31:31.575Z,98637.34
2018-10-17T03:34:00.438Z,98638.45
2018-10-17T03:36:28.645Z,98641.31
2018-10-17T03:38:57.440Z,98636.63
2018-10-17T03:41:25.761Z,98634.38
2018-10-17T03:43:54.401Z,98641.77
2018-10-17T03:46:24.074Z,98637.58
2018-10-17T03:48:52.405Z,98640.38
2018-10-17T03:51:21.072Z,98641.57
2018-10-17T03:53:49.431Z,98645.37
2018-10-17T03:56:17.737Z,98640.72
2018-10-17T03:58:46.083Z,98644.27
2018-10-17T04:01:14.468Z,98639.23
2018-10-17T04:03:42.703Z,98643.87
2018-10-17T04:06:11.013Z,98642.38
2018-10-17T04:08:39.720Z,98644.58
2018-10-17T04:11:08.394Z,98645.63
2018-10-17T04:13:36.636Z,98640.52
2018-10-17T04:16:04.904Z,98642.64
2018-10-17T04:18:33.745Z,98646.67
2018-10-17T04:21:02.369Z,98647.95
2018-10-17T04:23:30.793Z,98649.49
2018-10-17T04:25:59.082Z,98646.70
2018-10-17T04:28:27.413Z,98649.95
2018-10-17T04:30:56.560Z,98654.90
2018-10-17T04:33:25.040Z,98655.27
2018-10-17T04:35:55.211Z,98655.55
2018-10-17T04:38:24.355Z,98656.95
2018-10-17T04:40:54.128Z,98657.41
2018-10-17T04:43:22.573Z,98652.27
2018-10-17T04:45:50.934Z,98654.44
2018-10-17T04:48:20.653Z,98648.67
2018-10-17T04:50:49.292Z,98652.02
2018-10-17T04:53:17.795Z,98650.35
2018-10-17T04:55:45.835Z,98649.33
2018-10-17T04:58:14.248Z,98650.47
2018-10-17T05:00:42.909Z,98653.47
2018-10-17T05:03:11.183Z,98652.30
2018-10-17T05:05:39.652Z,98654.69
2018-10-17T05:08:08.276Z,98657.75
2018-10-17T05:10:36.846Z,98654.34
2018-10-17T05:13:05.335Z,98656.56
2018-10-17T05:15:33.737Z,98661.64
2018-10-17T05:18:02.015Z,98658.06
2018-10-17T05:20:31.177Z,98657.61
2018-10-17T05:22:59.453Z,98656.52
2018-10-17T05:25:28.194Z,98653.48
2018-10-17T05:27:56.744Z,98660.63
2018-10-17T05:30:24.992Z,98656.25
2018-10-17T05:32:53.347Z,98657.53
2018-10-17T05:35:21.699Z,98657.91
2018-10-17T05:37:50.889Z,98661.39
2018-10-17T05:40:19.509Z,98665.13
2018-10-17T05:42:49.046Z,98662.67
2018-10-17T05:45:17.880Z,98664.42
2018-10-17T05:47:46.733Z,98666.78
2018-10-17T05:50:15.956Z,98668.64
2018-10-17T05:52:44.808Z,98665.13
2018-10-17T05:55:13.221Z,98670.28
2018-10-17T05:57:41.406Z,98669.91
2018-10-17T06:00:09.855Z,98674.13
2018-10-17T06:02:39.026Z,98677.52
2018-10-17T06:05:08.402Z,98672.48
2018-10-17T06:07:37.435Z,98673.03
2018-10-17T06:10:07.429Z,98676.50
2018-10-17T06:12:36.209Z,98675.31
2018-10-17T06:15:05.387Z,98679.77
2018-10-17T06:17:33.783Z,98684.38
2018-10-17T06:20:02.662Z,98680.13
2018-10-17T06:22:31.009Z,98680.97
2018-10-17T06:25:00.519Z,98685.89
2018-10-17T06:27:28.747Z,98684.61
2018-10-17T06:29:57.902Z,98680.95
2018-10-17T06:32:26.566Z,98688.81
2018-10-17T06:34:55.209Z,98685.46
2018-10-17T06:37:23.397Z,98682.11
2018-10-17T06:39:52.003Z,98691.20
2018-10-17T06:42:20.304Z,98692.23
2018-10-17T06:44:48.406Z,98692.74
2018-10-17T06:47:16.995Z,98693.95
2018-10-17T06:49:45.514Z,98693.28
2018-10-17T06:52:14.653Z,98699.34
2018-10-17T06:54:43.827Z,98700.49
2018-10-17T06:57:12.414Z,98692.38
2018-10-17T06:59:41.403Z,98694.12
2018-10-17T07:02:09.653Z,98697.27
2018-10-17T07:04:38.521Z,98703.42
2018-10-17T07:07:06.879Z,98691.99
2018-10-17T07:09:35.191Z,98688.92
2018-10-17T07:12:04.659Z,98690.37
2018-10-17T07:14:32.990Z,98690.39
2018-10-17T07:17:02.794Z,98688.58
2018-10-17T07:19:31.401Z,98686.72
2018-10-17T07:22:00.296Z,98680.70
2018-10-17T07:24:28.594Z,98684.72
2018-10-17T07:26:56.917Z,98684.19
2018-10-17T07:29:26.243Z,98683.03
2018-10-17T07:31:54.320Z,98684.56
2018-10-17T07:34:22.832Z,98682.52
2018-10-17T07:36:51.250Z,98673.74
2018-10-17T07:39:19.790Z,98680.82
2018-10-17T07:41:48.220Z,98680.36
2018-10-17T07:44:16.695Z,98685.42
2018-10-17T07:46:45.216Z,98679.67
2018-10-17T07:49:13.719Z,98680.36
2018-10-17T07:51:42.517Z,98686.59
2018-10-17T07:54:10.932Z,98675.45
2018-10-17T07:56:39.392Z,98688.47
2018-10-17T07:59:07.617Z,98688.70
2018-10-17T08:01:36.635Z,98684.92
2018-10-17T08:04:05.332Z,98690.55
2018-10-17T08:06:33.608Z,98692.55
2018-10-17T08:09:01.831Z,98685.55
2018-10-17T08:11:30.105Z,98689.05
2018-10-17T08:13:58.406Z,98697.15
2018-10-17T08:16:26.650Z,98684.98
2018-10-17T08:18:55.146Z,98690.09
2018-10-17T08:21:23.456Z,98695.46
2018-10-17T08:23:51.713Z,98693.80
2018-10-17T08:26:19.896Z,98695.82
2018-10-17T08:28:48.196Z,98691.32
2018-10-17T08:31:16.834Z,98690.31
2018-10-17T08:33:45.325Z,98693.84
2018-10-17T08:36:13.767Z,98689.13
2018-10-17T08:38:42.232Z,98693.85
2018-10-17T08:41:10.504Z,98694.58
2018-10-17T08:43:38.782Z,98689.56
2018-10-17T08:46:07.028Z,98690.03
2018-10-17T08:48:35.244Z,98692.59
2018-10-17T08:51:03.563Z,98687.65
2018-10-17T08:53:31.764Z,98684.88
2018-10-17T08:56:01.473Z,98683.09
2018-10-17T08:58:29.709Z,98683.76
2018-10-17T09:00:57.936Z,98678.83
2018-10-17T09:03:26.740Z,98677.89
2018-10-17T09:05:55.280Z,98679.45
2018-10-17T09:08:23.903Z,98678.54
2018-10-17T09:10:52.117Z,98677.67
2018-10-17T09:13:21.056Z,98677.41
2018-10-17T09:15:49.228Z,98679.77
2018-10-17T09:18:17.763Z,98678.10
2018-10-17T09:20:46.156Z,98677.35
2018-10-17T09:23:14.534Z,98681.16
2018-10-17T09:25:42.870Z,98676.80
2018-10-17T09:28:11.252Z,98672.13
2018-10-17T09:30:39.585Z,98671.35
2018-10-17T09:33:07.630Z,98670.83
2018-10-17T09:35:36.017Z,98669.39
2018-10-17T09:38:04.588Z,98658.69
2018-10-17T09:40:32.913Z,98661.05
2018-10-17T09:43:01.248Z,98659.63
2018-10-17T09:45:30.416Z,98658.28
2018-10-17T09:47:58.897Z,98660.45
2018-10-17T09:50:27.413Z,98663.09
2018-10-17T09:52:55.636Z,98657.78
2018-10-17T09:55:24.524Z,98656.83
2018-10-17T09:57:52.830Z,98654.28
2018-10-17T10:01:24.683Z,98660.52
2018-10-17T10:03:53.686Z,98652.31
2018-10-17T10:06:21.865Z,98650.98
2018-10-17T10:08:50.427Z,98647.33
2018-10-17T10:11:18.956Z,98644.75
2018-10-17T10:13:47.287Z,98645.85
2018-10-17T10:16:15.960Z,98641.70
2018-10-17T10:18:44.232Z,98643.17
2018-10-17T10:21:12.520Z,98640.14
2018-10-17T10:23:41.036Z,98632.66
2018-10-17T10:26:10.100Z,98631.03
2018-10-17T10:28:38.732Z,98625.81
2018-10-17T10:31:07.038Z,98621.73
2018-10-17T10:33:35.397Z,98615.66
2018-10-17T10:36:03.640Z,98617.30
2018-10-17T10:38:31.898Z,98612.62
2018-10-17T10:41:00.258Z,98606.64
2018-10-17T10:43:28.505Z,98606.82
2018-10-17T10:45:56.762Z,98603.94
2018-10-17T10:48:25.002Z,98608.84
2018-10-17T10:50:53.286Z,98609.38
2018-10-17T10:53:21.571Z,98606.34
2018-10-17T10:55:50.138Z,98603.67
2018-10-17T10:58:18.465Z,98605.19
2018-10-17T11:00:46.593Z,98607.36
2018-10-17T11:03:14.897Z,98606.86
2018-10-17T11:05:43.262Z,98604.14
2018-10-17T11:08:11.584Z,98602.77
2018-10-17T11:10:40.428Z,98593.70
2018-10-17T11:13:08.744Z,98591.84
2018-10-17T11:15:37.385Z,98594.89
2018-10-17T11:18:05.842Z,98592.89
2018-10-17T11:20:34.279Z,98587.33
2018-10-17T11:23:03.543Z,98583.85
2018-10-17T11:25:31.758Z,98582.80
2018-10-17T11:28:00.028Z,98577.34
2018-10-17T11:30:28.314Z,98569.59
2018-10-17T11:32:56.529Z,98570.63
2018-10-17T11:35:24.756Z,98572.29
2018-10-17T11:37:53.061Z,98569.02
2018-10-17T11:40:21.840Z,98563.08
2018-10-17T11:42:50.368Z,98561.50
2018-10-17T11:45:18.680Z,98563.34
2018-10-17T11:47:47.306Z,98556.31
2018-10-17T11:50:15.570Z,98555.79
2018-10-17T11:52:44.021Z,98553.44
2018-10-17T11:55:12.246Z,98556.73
2018-10-17T11:57:40.446Z,98549.12
2018-10-17T12:00:11.065Z,98555.90
2018-10-17T12:02:39.726Z,98554.52
2018-10-17T12:05:11.916Z,98548.17
2018-10-17T12:07:40.682Z,98546.41
2018-10-17T12:10:08.888Z,98541.59
2018-10-17T12:12:37.654Z,98536.60
2018-10-17T12:15:09.775Z,98535.03
2018-10-17T12:17:39.044Z,98524.30
2018-10-17T12:20:10.570Z,98524.16
2018-10-17T12:22:39.901Z,98517.41
2018-10-17T12:25:09.319Z,98515.17
2018-10-17T12:27:37.888Z,98514.92
2018-10-17T12:30:09.136Z,98510.77
2018-10-17T12:32:37.694Z,98504.92
2018-10-17T12:35:06.847Z,98506.13
2018-10-17T12:37:35.982Z,98505.09
2018-10-17T12:40:05.539Z,98503.39
2018-10-17T12:42:33.698Z,98499.82
2018-10-17T12:45:02.581Z,98497.18
2018-10-17T12:47:30.743Z,98489.89
2018-10-17T12:49:59.044Z,98495.77
2018-10-17T12:52:28.362Z,98490.06
2018-10-17T12:54:56.677Z,98494.34
2018-10-17T12:57:24.927Z,98494.94
2018-10-17T12:59:53.618Z,98488.92
2018-10-17T13:02:22.037Z,98496.56
2018-10-17T13:04:51.051Z,98486.63
2018-10-17T13:07:19.270Z,98489.11
2018-10-17T13:09:48.060Z,98494.07
2018-10-17T13:12:16.340Z,98488.87
2018-10-17T13:14:44.667Z,98484.27
2018-10-17T13:17:13.548Z,98489.75
2018-10-17T13:19:41.744Z,98484.69
2018-10-17T13:22:09.944Z,98478.44
2018-10-17T13:24:38.343Z,98474.21
2018-10-17T13:27:06.469Z,98472.41
2018-10-17T13:29:35.267Z,98474.31
2018-10-17T13:32:03.693Z,98472.31
2018-10-17T13:34:32.248Z,98468.59
2018-10-17T13:37:00.840Z,98468.86
2018-10-17T13:39:29.993Z,98466.38
2018-10-17T13:41:58.568Z,98464.06
2018-10-17T13:44:28.196Z,98462.39
2018-10-17T13:46:56.500Z,98463.64
2018-10-17T13:49:25.184Z,98462.95
2018-10-17T13:51:53.420Z,98459.29
2018-10-17T13:54:21.643Z,98460.80
2018-10-17T13:56:50.726Z,98460.08
2018-10-17T13:59:19.105Z,98461.34
2018-10-17T14:01:47.807Z,98457.41
2018-10-17T14:04:16.148Z,98460.17
2018-10-17T14:06:44.549Z,98454.64
2018-10-17T14:09:12.891Z,98454.63
2018-10-17T14:11:41.098Z,98458.48
2018-10-17T14:14:09.193Z,98454.90
2018-10-17T14:16:37.414Z,98449.88
2018-10-17T14:19:06.345Z,98457.05
2018-10-17T14:21:34.568Z,98455.56
2018-10-17T14:24:03.456Z,98460.25
2018-10-17T14:26:33.325Z,98452.49
2018-10-17T14:29:04.570Z,98463.88
2018-10-17T14:31:32.908Z,98457.73
2018-10-17T14:34:02.046Z,98463.40
2018-10-17T14:36:31.047Z,98452.33
2018-10-17T14:39:45.763Z,98453.16
2018-10-17T14:42:14.262Z,98455.90
2018-10-17T14:44:42.927Z,98457.31
2018-10-17T14:47:13.605Z,98450.99
2018-10-17T14:49:42.156Z,98449.30
2018-10-17T14:52:10.480Z,98458.20
2018-10-17T14:54:38.916Z,98449.89
2018-10-17T14:57:07.721Z,98452.73
2018-10-17T14:59:36.760Z,98451.80
2018-10-17T15:02:05.942Z,98446.58
2018-10-17T15:04:35.577Z,98451.36
2018-10-17T15:07:05.149Z,98453.87
2018-10-17T15:09:34.732Z,98453.05
2018-10-17T15:12:03.202Z,98450.61
2018-10-17T15:14:32.183Z,98454.75
2018-10-17T15:17:00.684Z,98450.48
2018-10-17T15:19:29.034Z,98447.86
2018-10-17T15:21:57.457Z,98451.65
2018-10-17T15:24:26.178Z,98447.30
2018-10-17T15:26:54.586Z,98447.45
2018-10-17T15:29:23.073Z,98453.42
2018-10-17T15:31:51.884Z,98448.45
2018-10-17T15:34:20.578Z,98453.67
2018-10-17T15:36:49.129Z,98453.20
2018-10-17T15:39:17.572Z,98448.44
2018-10-17T15:41:46.344Z,98450.73
2018-10-17T15:44:14.759Z,98450.90
2018-10-17T15:46:43.380Z,98455.89
2018-10-17T15:49:12.092Z,98456.09
2018-10-17T15:51:40.772Z,98448.99
2018-10-17T15:54:10.392Z,98450.75
2018-10-17T15:56:40.126Z,98451.99
2018-10-17T15:59:08.560Z,98455.42
2018-10-17T16:01:37.910Z,98459.81
2018-10-17T16:04:09.780Z,98456.17
2018-10-17T16:06:38.798Z,98456.30
2018-10-17T16:09:10.713Z,98455.75
2018-10-17T16:11:39.592Z,98453.52
2018-10-17T16:14:08.452Z,98452.01
2018-10-17T16:16:38.129Z,98449.92
2018-10-17T16:19:06.622Z,98459.09
2018-10-17T16:21:35.104Z,98459.63
2018-10-17T16:24:03.766Z,98454.88
2018-10-17T16:26:32.180Z,98459.81
2018-10-17T16:29:00.789Z,98456.56
2018-10-17T16:31:29.673Z,98459.38
2018-10-17T16:33:58.398Z,98467.34
2018-10-17T16:36:27.183Z,98461.14
2018-10-17T16:38:56.566Z,98473.38
2018-10-17T16:41:25.199Z,98470.92
2018-10-17T16:43:53.904Z,98479.09
2018-10-17T16:46:23.351Z,98480.86
2018-10-17T16:48:52.553Z,98482.62
2018-10-17T16:51:27.703Z,98488.96
2018-10-17T16:53:56.126Z,98494.00
2018-10-17T16:56:25.398Z,98491.08
2018-10-17T16:58:53.894Z,98491.40
2018-10-17T17:01:23.051Z,98495.62
2018-10-17T17:03:51.656Z,98488.20
2018-10-17T17:06:20.138Z,98492.60
2018-10-17T17:08:49.320Z,98497.63
2018-10-17T17:11:18.269Z,98499.92
2018-10-17T17:13:50.259Z,98506.95
2018-10-17T17:16:19.164Z,98504.16
2018-10-17T17:18:48.153Z,98505.88
2018-10-17T17:21:17.065Z,98501.91
2018-10-17T17:23:45.515Z,98507.35
2018-10-17T17:26:14.108Z,98507.22
2018-10-17T17:28:42.659Z,98512.36
2018-10-17T17:31:11.145Z,98512.25
2018-10-17T17:33:40.508Z,98515.04
2018-10-17T17:36:09.020Z,98522.33
2018-10-17T17:38:40.920Z,98515.84
2018-10-17T17:41:09.613Z,98520.44
2018-10-17T17:43:38.397Z,98520.64
2018-10-17T17:46:08.210Z,98523.89
2018-10-17T17:48:36.832Z,98524.00
2018-10-17T17:51:05.335Z,98528.15
2018-10-17T17:53:33.827Z,98520.69
2018-10-17T17:56:02.510Z,98519.84
2018-10-17T17:58:31.260Z,98525.58
2018-10-17T18:01:00.806Z,98528.06
2018-10-17T18:03:29.281Z,98533.14
2018-10-17T18:05:58.541Z,98532.02
2018-10-17T18:08:28.725Z,98534.91
2018-10-17T18:11:02.102Z,98536.98
2018-10-17T18:13:30.680Z,98539.22
2018-10-17T18:15:59.486Z,98543.50
2018-10-17T18:18:27.966Z,98545.22
2018-10-17T18:20:56.913Z,98548.04
2018-10-17T18:23:26.084Z,98549.88
2018-10-17T18:25:54.749Z,98556.66
2018-10-17T18:28:23.514Z,98551.49
2018-10-17T18:30:52.756Z,98557.13
2018-10-17T18:33:21.409Z,98556.45
2018-10-17T18:35:51.096Z,98559.73
2018-10-17T18:38:19.629Z,98560.55
2018-10-17T18:40:48.277Z,98559.05
2018-10-17T18:43:18.490Z,98569.98
2018-10-17T18:45:46.968Z,98574.02
2018-10-17T18:48:15.393Z,98582.03
2018-10-17T18:50:43.927Z,98580.53
2018-10-17T18:53:12.666Z,98581.72
2018-10-17T18:55:41.173Z,98579.29
2018-10-17T18:58:09.532Z,98584.05
2018-10-17T19:00:38.504Z,98580.08
2018-10-17T19:03:07.190Z,98581.14
2018-10-17T19:05:35.451Z,98590.63
2018-10-17T19:08:04.583Z,98587.75
2018-10-17T19:10:33.781Z,98591.56
2018-10-17T19:13:03.696Z,98591.48
2018-10-17T19:15:32.147Z,98592.38
2018-10-17T19:18:01.048Z,98603.98
2018-10-17T19:20:30.803Z,98599.61
2018-10-17T19:23:00.253Z,98600.64
2018-10-17T19:25:28.820Z,98601.38
2018-10-17T19:27:58.314Z,98605.27
2018-10-17T19:30:27.175Z,98602.20
2018-10-17T19:32:55.728Z,98604.31
2018-10-17T19:35:24.752Z,98608.45
2018-10-17T19:37:54.881Z,98601.55
2018-10-17T19:40:23.720Z,98606.10
2018-10-17T19:42:52.198Z,98609.23
2018-10-17T19:45:20.584Z,98607.58
2018-10-17T19:47:49.161Z,98610.12
2018-10-17T19:50:17.574Z,98611.88
2018-10-17T19:52:46.104Z,98612.98
2018-10-17T19:55:14.735Z,98614.95
2018-10-17T19:57:43.218Z,98615.48
2018-10-17T20:00:13.806Z,98615.48
2018-10-17T20:02:43.023Z,98614.09
2018-10-17T20:05:12.119Z,98613.73
2018-10-17T20:07:40.763Z,98617.30
2018-10-17T20:10:09.783Z,98621.02
2018-10-17T20:12:38.312Z,98618.91
2018-10-17T20:15:08.882Z,98624.62
2018-10-17T20:17:37.465Z,98625.47
2018-10-17T20:20:06.869Z,98629.36
2018-10-17T20:22:35.293Z,98627.38
2018-10-17T20:25:04.607Z,98627.14
2018-10-17T20:27:33.007Z,98628.48
2018-10-17T20:30:01.554Z,98626.36
2018-10-17T20:32:30.017Z,98629.66
2018-10-17T20:34:58.795Z,98628.78
2018-10-17T20:37:27.231Z,98630.20
2018-10-17T20:39:56.649Z,98633.73
2018-10-17T20:42:26.339Z,98629.16
2018-10-17T20:44:55.017Z,98639.16
2018-10-17T20:47:23.870Z,98640.72
2018-10-17T20:49:53.207Z,98635.89
2018-10-17T20:52:21.693Z,98642.11
2018-10-17T20:54:51.884Z,98638.70
2018-10-17T20:57:20.388Z,98637.41
2018-10-17T20:59:49.075Z,98638.38
2018-10-17T21:02:17.828Z,98639.11
2018-10-17T21:04:46.537Z,98638.11
2018-10-17T21:07:15.369Z,98637.50
2018-10-17T21:09:43.821Z,98636.09
2018-10-17T21:12:12.920Z,98640.34
2018-10-17T21:14:41.370Z,98636.03
2018-10-17T21:17:10.025Z,98640.48
2018-10-17T21:19:38.497Z,98641.78
2018-10-17T21:22:06.944Z,98645.98
2018-10-17T21:24:35.361Z,98644.63
2018-10-17T21:27:04.499Z,98647.36
2018-10-17T21:29:33.552Z,98646.94
2018-10-17T21:32:02.089Z,98648.59
2018-10-17T21:34:31.459Z,98644.92
2018-10-17T21:36:59.888Z,98643.16
2018-10-17T21:39:28.301Z,98647.69
2018-10-17T21:41:56.772Z,98644.63
2018-10-17T21:44:26.075Z,98644.87
2018-10-17T21:46:54.804Z,98647.72
2018-10-17T21:49:23.205Z,98641.95
2018-10-17T21:51:51.688Z,98636.56
2018-10-17T21:54:20.499Z,98637.47
2018-10-17T21:56:49.971Z,98632.54
2018-10-17T21:59:18.438Z,98636.81
2018-10-17T22:01:46.920Z,98629.16
2018-10-17T22:04:22.235Z,98631.63
2018-10-17T22:06:50.661Z,98631.63
2018-10-17T22:09:19.313Z,98627.52
2018-10-17T22:11:47.680Z,98630.44
2018-10-17T22:14:16.133Z,98632.95
2018-10-17T22:16:50.162Z,98627.63
2018-10-17T22:19:18.709Z,98631.17
2018-10-17T22:21:46.937Z,98622.59
2018-10-17T22:24:15.313Z,98627.32
2018-10-17T22:26:44.003Z,98631.66
2018-10-17T22:29:12.653Z,98633.18
2018-10-17T22:31:41.040Z,98631.31
2018-10-17T22:34:09.433Z,98634.12
2018-10-17T22:36:37.847Z,98631.45
2018-10-17T22:39:12.051Z,98637.91
2018-10-17T22:41:41.737Z,98638.39
2018-10-17T22:44:11.681Z,98637.44
2018-10-17T22:46:41.502Z,98637.45
2018-10-17T22:49:10.913Z,98639.45
2018-10-17T22:51:39.916Z,98640.52
2018-10-17T22:54:08.331Z,98644.65
2018-10-17T22:56:37.730Z,98643.94
2018-10-17T22:59:06.726Z,98639.45
2018-10-17T23:01:35.955Z,98644.41
2018-10-17T23:04:04.839Z,98635.58
2018-10-17T23:06:33.276Z,98631.72
2018-10-17T23:09:01.881Z,98636.65
2018-10-17T23:11:30.322Z,98636.06
2018-10-17T23:13:59.065Z,98636.16
2018-10-17T23:16:27.994Z,98635.25
2018-10-17T23:18:56.533Z,98628.30
2018-10-17T23:21:24.965Z,98627.13
2018-10-17T23:23:53.345Z,98630.65
2018-10-17T23:26:21.725Z,98629.23
2018-10-17T23:28:50.168Z,98635.72
2018-10-17T23:31:18.790Z,98633.72
2018-10-17T23:33:47.169Z,98632.20
2018-10-17T23:36:15.568Z,98630.77
2018-10-17T23:38:43.991Z,98624.56
2018-10-17T23:41:13.471Z,98625.73
2018-10-17T23:43:42.408Z,98624.31
2018-10-17T23:46:12.224Z,98628.91
2018-10-17T23:48:40.596Z,98624.44
2018-10-17T23:51:09.052Z,98624.91
2018-10-17T23:53:39.409Z,98631.70
2018-10-17T23:56:08.479Z,98628.07
2018-10-17T23:58:36.872Z,98631.35
